CYQL

Lethbridge County Airport

Lethbridge, Alberta, Canada
METAR CYQL 210500Z AUTO 21007KT 9SM FEW085 10/03 A3029 RMK SLP265
Observed Flight Rules
Aug-21 @ 05:00 UTC (13 hours ago) Visual Flight Rules
Wind Visibility Clouds
210° at 7 knots 9 miles
  • Few at 8,500' AGL
Temperatures Readings
Current 10°C / 50°F
Dewpoint 3°C / 37°F
Humidity 62%
Altimeter 30.29" Hg
Pressure 1026.5 hPa
Elevation 929
METAR CYQL 210500Z AUTO 21007KT 9SM FEW085 10/03 A3029 RMK SLP265
Observed Flight Rules
Aug-21 @ 05:00 UTC
(13 hours ago)
VFR
Wind Visibility
210° at 7 knots 9 miles
Clouds
  • Few at 8,500' AGL
Temperature Dewpoint
10°C / 50°F 3°C / 37°F
Humidity Altimeter Pressure
62% 30.29" Hg 1026.5 hPa